Time;durP1;ratioP1;P1;durP2;ratioP2;P2;SDS_P1;SDS_P2;PMS_P1;PMS_P2;Temp;Humidity;BMP_temperature;BMP_pressure;BME280_temperature;BME280_humidity;BME280_pressure;Samples;Min_cycle;Max_cycle;Signal;HPM_P1;HPM_P2
2023/03/14 00:01:14;;;;;;;1.60;1.50;;;12.20;96.00;;;;;;5040671;28;20280;-86
2023/03/14 00:03:39;;;;;;;2.03;1.60;;;12.30;96.40;;;;;;5047918;28;20179;-87
2023/03/14 00:06:06;;;;;;;1.70;1.60;;;12.30;96.30;;;;;;5047451;28;20243;-86
2023/03/14 00:08:32;;;;;;;1.67;1.57;;;12.30;95.30;;;;;;5047560;28;20197;-84
2023/03/14 00:10:58;;;;;;;1.77;1.60;;;12.30;95.80;;;;;;5034552;28;20206;-86
2023/03/14 00:13:24;;;;;;;1.70;1.60;;;12.20;96.10;;;;;;5041276;28;20302;-83
2023/03/14 00:15:49;;;;;;;1.70;1.60;;;12.20;95.90;;;;;;5045722;28;20176;-86
2023/03/14 00:18:15;;;;;;;1.60;1.50;;;12.20;95.90;;;;;;5045988;28;20721;-85
2023/03/14 00:20:41;;;;;;;1.80;1.70;;;12.20;96.50;;;;;;5036840;28;20202;-86
2023/03/14 00:23:06;;;;;;;1.53;1.43;;;12.20;96.80;;;;;;5025731;28;20206;-85
2023/03/14 00:25:32;;;;;;;1.50;1.40;;;12.20;97.90;;;;;;5027267;28;20203;-85
2023/03/14 00:27:58;;;;;;;1.50;1.40;;;12.20;96.30;;;;;;5026127;28;20181;-87
2023/03/14 00:30:23;;;;;;;1.80;1.70;;;12.20;97.10;;;;;;5027748;28;20198;-84
2023/03/14 00:32:49;;;;;;;1.80;1.70;;;12.20;97.20;;;;;;5027391;28;20183;-86
2023/03/14 00:35:15;;;;;;;2.00;1.80;;;12.10;96.60;;;;;;5025345;28;20195;-85
2023/03/14 00:37:41;;;;;;;1.50;1.40;;;12.20;96.20;;;;;;5027062;28;20187;-86
2023/03/14 00:40:08;;;;;;;1.33;1.33;;;12.20;98.00;;;;;;5027116;28;20214;-85
2023/03/14 00:42:33;;;;;;;1.40;1.30;;;12.10;97.40;;;;;;5053522;28;20182;-85
2023/03/14 00:44:59;;;;;;;1.50;1.40;;;12.20;97.90;;;;;;5050916;28;20208;-86
2023/03/14 00:47:24;;;;;;;1.60;1.50;;;12.20;98.60;;;;;;5048563;28;20193;-85
2023/03/14 00:49:50;;;;;;;1.40;1.30;;;12.10;99.40;;;;;;5049710;28;20227;-86
2023/03/14 00:52:16;;;;;;;1.43;1.30;;;12.20;98.60;;;;;;5030872;28;20187;-86
2023/03/14 00:54:41;;;;;;;1.77;1.67;;;12.10;99.50;;;;;;5031493;28;20187;-86
2023/03/14 00:57:07;;;;;;;2.67;1.50;;;12.20;99.40;;;;;;5043343;28;20196;-86
2023/03/14 00:59:32;;;;;;;1.60;1.50;;;12.10;99.90;;;;;;5036077;28;20210;-86
2023/03/14 01:01:58;;;;;;;2.40;1.60;;;12.20;99.60;;;;;;5032214;28;20185;-86
2023/03/14 01:04:24;;;;;;;1.60;1.47;;;12.10;99.60;;;;;;5032438;28;20228;-84
2023/03/14 01:06:49;;;;;;;1.90;1.80;;;12.10;99.90;;;;;;5047678;28;20185;-87
2023/03/14 01:09:17;;;;;;;2.17;1.50;;;12.00;99.90;;;;;;5054616;28;20338;-86
2023/03/14 01:11:46;;;;;;;2.13;1.70;;;12.00;99.90;;;;;;5054592;28;20185;-86
2023/03/14 01:14:12;;;;;;;1.60;1.50;;;12.00;99.90;;;;;;5054613;28;20191;-86
2023/03/14 01:16:37;;;;;;;2.37;1.57;;;12.00;99.90;;;;;;5045526;28;20193;-86
2023/03/14 01:19:03;;;;;;;1.73;1.63;;;11.90;99.90;;;;;;5029867;28;20193;-85
2023/03/14 01:21:32;;;;;;;1.83;1.73;;;11.90;99.90;;;;;;5029147;28;20201;-87
2023/03/14 01:24:01;;;;;;;1.80;1.70;;;11.80;99.90;;;;;;5037062;28;20829;-85
2023/03/14 01:26:30;;;;;;;1.50;1.40;;;11.80;99.90;;;;;;5030755;28;20193;-86
2023/03/14 01:28:56;;;;;;;2.40;1.70;;;11.70;99.90;;;;;;5036830;28;20185;-85
2023/03/14 01:31:23;;;;;;;1.93;1.73;;;11.70;99.90;;;;;;5050329;28;20181;-85
2023/03/14 01:33:49;;;;;;;1.93;1.73;;;11.70;99.90;;;;;;5049227;28;20208;-84
2023/03/14 01:36:15;;;;;;;1.70;1.60;;;11.60;99.90;;;;;;5049390;28;20209;-87
2023/03/14 01:38:41;;;;;;;1.70;1.60;;;11.60;99.90;;;;;;5057167;28;20188;-84
2023/03/14 01:41:11;;;;;;;1.93;1.70;;;11.60;99.90;;;;;;5054690;28;20246;-87
2023/03/14 01:43:37;;;;;;;1.67;1.57;;;11.70;99.90;;;;;;5048767;28;20176;-85
2023/03/14 01:46:05;;;;;;;2.13;1.97;;;11.60;99.90;;;;;;5050493;28;20178;-86
2023/03/14 01:48:40;;;;;;;2.87;1.73;;;11.60;99.90;;;;;;5050808;28;20193;-84
2023/03/14 01:51:13;;;;;;;1.90;1.80;;;11.60;99.90;;;;;;5049578;28;20220;-85
2023/03/14 01:53:41;;;;;;;1.80;1.70;;;11.50;99.90;;;;;;5049687;28;20177;-85
2023/03/14 01:56:10;;;;;;;1.70;1.60;;;11.50;99.90;;;;;;5050080;28;20193;-85
2023/03/14 01:58:37;;;;;;;2.00;1.80;;;11.60;99.90;;;;;;5048885;28;20200;-86
2023/03/14 02:01:04;;;;;;;2.10;1.67;;;11.50;99.90;;;;;;5049593;28;20218;-86
2023/03/14 02:03:34;;;;;;;1.70;1.60;;;11.60;99.90;;;;;;5049688;28;20169;-86
2023/03/14 02:06:06;;;;;;;1.97;1.80;;;11.50;99.90;;;;;;5048944;28;20178;-86
2023/03/14 02:08:34;;;;;;;1.80;1.57;;;11.50;99.90;;;;;;5049050;28;20256;-85
2023/03/14 02:11:00;;;;;;;1.73;1.40;;;11.50;99.90;;;;;;5056621;28;20184;-87
2023/03/14 02:13:26;;;;;;;2.67;1.80;;;11.60;99.90;;;;;;5058159;28;20319;-88
2023/03/14 02:15:52;;;;;;;1.70;1.60;;;11.50;99.90;;;;;;5058136;28;20169;-87
2023/03/14 02:18:19;;;;;;;2.47;1.60;;;11.40;99.90;;;;;;5051840;28;20205;-86
2023/03/14 02:20:52;;;;;;;1.90;1.70;;;11.50;99.90;;;;;;5045552;28;20216;-87
2023/03/14 02:23:30;;;;;;;2.00;1.80;;;11.50;99.90;;;;;;5030775;28;20177;-89
2023/03/14 02:26:07;;;;;;;1.70;1.60;;;11.40;99.90;;;;;;5055921;28;20165;-85
2023/03/14 02:28:33;;;;;;;1.70;1.47;;;11.40;99.90;;;;;;5049493;28;20192;-87
2023/03/14 02:30:59;;;;;;;4.50;1.90;;;11.40;99.90;;;;;;5048299;28;20334;-88
2023/03/14 02:33:25;;;;;;;1.83;1.73;;;11.30;99.90;;;;;;5050639;28;20181;-85
2023/03/14 02:36:01;;;;;;;3.27;1.50;;;11.40;99.90;;;;;;5060128;28;20194;-87
2023/03/14 02:38:40;;;;;;;2.73;1.73;;;11.40;99.90;;;;;;5040251;28;20189;-86
2023/03/14 02:41:07;;;;;;;3.43;1.80;;;11.40;99.70;;;;;;5029935;28;20574;-85
2023/03/14 02:43:32;;;;;;;1.60;1.50;;;11.40;99.90;;;;;;5030189;28;20280;-86
2023/03/14 02:46:00;;;;;;;2.90;1.97;;;11.30;99.90;;;;;;5028472;28;20182;-86
2023/03/14 02:48:28;;;;;;;1.80;1.70;;;11.30;99.90;;;;;;5029673;28;20847;-87
2023/03/14 02:50:58;;;;;;;2.10;1.80;;;11.30;99.90;;;;;;5029345;28;20205;-86
2023/03/14 02:53:31;;;;;;;2.00;1.77;;;11.30;99.90;;;;;;5029279;28;20178;-86
2023/03/14 02:55:57;;;;;;;1.80;1.70;;;11.20;99.80;;;;;;5029673;28;20174;-88
2023/03/14 02:58:23;;;;;;;3.73;1.77;;;11.20;99.50;;;;;;5029574;28;20238;-86
2023/03/14 03:00:49;;;;;;;1.73;1.60;;;11.20;99.90;;;;;;5029074;28;20213;-85
2023/03/14 03:03:15;;;;;;;3.00;1.70;;;11.30;98.60;;;;;;5048031;28;20180;-88
2023/03/14 03:05:42;;;;;;;2.00;1.90;;;11.30;99.50;;;;;;5046909;28;20184;-87
2023/03/14 03:08:08;;;;;;;2.27;1.70;;;11.20;97.90;;;;;;5047929;28;20234;-85
2023/03/14 03:10:34;;;;;;;2.50;1.80;;;11.20;98.40;;;;;;5045346;28;20208;-86
2023/03/14 03:12:59;;;;;;;4.23;1.80;;;11.20;98.00;;;;;;5046864;28;20185;-83
2023/03/14 03:15:25;;;;;;;3.70;1.87;;;11.20;98.00;;;;;;5046761;28;20239;-84
2023/03/14 03:17:51;;;;;;;1.70;1.53;;;11.20;96.90;;;;;;5046445;28;20212;-87
2023/03/14 03:20:17;;;;;;;1.77;1.67;;;11.20;96.70;;;;;;5047188;28;20281;-85
2023/03/14 03:22:42;;;;;;;1.70;1.60;;;11.10;96.70;;;;;;5027432;28;20185;-85
2023/03/14 03:25:09;;;;;;;2.47;1.80;;;11.20;96.40;;;;;;5054160;28;20547;-86
2023/03/14 03:27:37;;;;;;;2.67;1.80;;;11.20;96.60;;;;;;5068031;28;20208;-86
2023/03/14 03:30:04;;;;;;;3.20;1.80;;;11.20;96.00;;;;;;5066963;28;20204;-86
2023/03/14 03:32:30;;;;;;;2.73;1.87;;;11.10;95.30;;;;;;5055997;28;20184;-85
2023/03/14 03:34:56;;;;;;;2.63;1.83;;;11.20;93.90;;;;;;5046846;28;20249;-85
2023/03/14 03:37:22;;;;;;;2.70;1.80;;;11.20;95.50;;;;;;5047417;28;20176;-86
2023/03/14 03:39:50;;;;;;;2.20;1.73;;;11.10;93.50;;;;;;5046760;28;20212;-85
2023/03/14 03:42:16;;;;;;;3.07;1.90;;;11.10;94.00;;;;;;5046498;28;20235;-85
2023/03/14 03:44:42;;;;;;;1.60;1.50;;;11.20;92.80;;;;;;5045395;28;20184;-87
2023/03/14 03:47:07;;;;;;;2.00;1.80;;;11.10;92.90;;;;;;5046130;28;20188;-84
2023/03/14 03:49:33;;;;;;;2.20;2.00;;;11.10;91.00;;;;;;5046872;28;20197;-87
2023/03/14 03:52:00;;;;;;;1.97;1.77;;;11.10;91.80;;;;;;5045539;28;20693;-86
2023/03/14 03:54:25;;;;;;;3.30;1.90;;;11.10;90.90;;;;;;5047227;28;20185;-87
2023/03/14 03:56:52;;;;;;;3.23;1.70;;;11.20;90.20;;;;;;5047303;28;20205;-86
2023/03/14 03:59:18;;;;;;;2.97;1.60;;;11.20;88.70;;;;;;5047514;28;20196;-86
2023/03/14 04:01:43;;;;;;;3.37;1.83;;;11.20;87.60;;;;;;5047126;28;20212;-85
2023/03/14 04:04:09;;;;;;;1.80;1.70;;;11.20;88.10;;;;;;5044737;28;20188;-88
2023/03/14 04:06:35;;;;;;;2.07;1.70;;;11.20;87.60;;;;;;5046162;28;20173;-84
2023/03/14 04:09:01;;;;;;;3.03;1.90;;;11.10;87.10;;;;;;5041339;28;20174;-86
2023/03/14 04:11:26;;;;;;;1.97;1.70;;;11.20;87.60;;;;;;5026311;28;20177;-87
2023/03/14 04:13:52;;;;;;;2.10;1.90;;;11.10;87.30;;;;;;5026208;28;20189;-89
2023/03/14 04:16:21;;;;;;;4.03;1.73;;;11.10;87.60;;;;;;5026780;28;20177;-86
2023/03/14 04:18:47;;;;;;;2.97;1.70;;;11.10;87.00;;;;;;5027026;28;20200;-85
2023/03/14 04:21:13;;;;;;;2.37;1.50;;;11.10;86.00;;;;;;5041681;28;20223;-86
2023/03/14 04:23:38;;;;;;;3.77;1.73;;;11.10;86.40;;;;;;5051312;28;20412;-86
2023/03/14 04:26:04;;;;;;;3.17;1.63;;;11.10;86.90;;;;;;5063626;28;20181;-85
2023/03/14 04:28:30;;;;;;;1.80;1.70;;;11.00;86.50;;;;;;5067327;28;20516;-83
2023/03/14 04:30:56;;;;;;;2.97;1.67;;;11.00;86.90;;;;;;5050236;28;20193;-85
2023/03/14 04:33:22;;;;;;;2.80;1.67;;;11.00;86.90;;;;;;5049990;28;20192;-85
2023/03/14 04:35:49;;;;;;;2.50;1.83;;;11.00;86.70;;;;;;5049711;28;20291;-85
2023/03/14 04:38:15;;;;;;;2.37;1.70;;;10.90;87.80;;;;;;5049945;28;20189;-89
2023/03/14 04:40:41;;;;;;;4.03;1.97;;;11.00;87.20;;;;;;5050646;28;20236;-87
2023/03/14 04:43:09;;;;;;;3.07;1.90;;;10.90;88.30;;;;;;5050396;28;20336;-86
2023/03/14 04:45:35;;;;;;;4.30;1.67;;;10.90;89.20;;;;;;5030011;28;20185;-85
2023/03/14 04:48:01;;;;;;;2.37;1.80;;;11.00;87.30;;;;;;5031239;28;20548;-87
2023/03/14 04:50:27;;;;;;;4.63;1.90;;;10.90;87.90;;;;;;5032401;28;20205;-88
2023/03/14 04:52:53;;;;;;;2.60;1.60;;;10.90;87.40;;;;;;5037301;28;20199;-87
2023/03/14 04:55:18;;;;;;;2.33;1.80;;;11.00;86.60;;;;;;5047567;28;20193;-87
2023/03/14 04:57:44;;;;;;;1.87;1.63;;;11.10;85.70;;;;;;5048306;28;20185;-87
2023/03/14 05:00:10;;;;;;;3.37;1.80;;;11.10;85.30;;;;;;5042265;28;20212;-87
2023/03/14 05:02:36;;;;;;;3.20;1.87;;;11.20;84.40;;;;;;5035493;28;20255;-86
2023/03/14 05:05:01;;;;;;;3.50;1.70;;;11.10;84.60;;;;;;5028784;28;20189;-85
2023/03/14 05:07:27;;;;;;;2.43;1.60;;;11.10;83.50;;;;;;5029149;28;20182;-88
2023/03/14 05:09:53;;;;;;;3.27;2.07;;;11.20;84.40;;;;;;5028833;28;20213;-86
2023/03/14 05:12:22;;;;;;;3.67;1.60;;;11.30;84.30;;;;;;5036644;28;20568;-87
2023/03/14 05:14:47;;;;;;;3.03;1.67;;;11.20;84.50;;;;;;5028784;28;20866;-87
2023/03/14 05:17:14;;;;;;;3.20;1.87;;;11.20;84.20;;;;;;5048489;28;20222;-86
2023/03/14 05:19:40;;;;;;;3.40;1.70;;;11.20;85.50;;;;;;5041347;28;20201;-84
2023/03/14 05:22:06;;;;;;;5.27;1.90;;;11.20;84.60;;;;;;5035376;28;20372;-84
2023/03/14 05:24:32;;;;;;;2.77;1.93;;;11.20;84.00;;;;;;5058312;28;20181;-83
2023/03/14 05:26:58;;;;;;;5.27;1.83;;;11.20;84.40;;;;;;5030182;28;20225;-84
2023/03/14 05:29:24;;;;;;;2.17;1.50;;;11.10;85.10;;;;;;5024851;28;20201;-84
2023/03/14 05:31:49;;;;;;;2.70;1.83;;;11.10;84.60;;;;;;5027326;28;20192;-84
2023/03/14 05:34:15;;;;;;;2.73;1.90;;;11.10;84.40;;;;;;5056349;28;20187;-83
2023/03/14 05:36:41;;;;;;;2.30;1.70;;;11.20;84.20;;;;;;5065857;28;20215;-84
2023/03/14 05:39:07;;;;;;;2.90;1.70;;;11.20;84.10;;;;;;5064725;28;20227;-85
2023/03/14 05:41:32;;;;;;;3.57;1.60;;;11.20;83.60;;;;;;5047031;28;20205;-85
2023/03/14 05:43:58;;;;;;;1.70;1.40;;;11.10;85.70;;;;;;5040047;28;20194;-84
2023/03/14 05:46:23;;;;;;;1.63;1.53;;;11.10;85.10;;;;;;5036174;28;20181;-83
2023/03/14 05:48:49;;;;;;;2.10;1.63;;;11.00;85.50;;;;;;5051263;28;20572;-86
2023/03/14 05:51:15;;;;;;;2.00;1.80;;;11.00;85.10;;;;;;5044875;28;20213;-84
2023/03/14 05:53:40;;;;;;;3.33;1.50;;;10.90;84.60;;;;;;5042616;28;20189;-84
2023/03/14 05:56:06;;;;;;;2.27;1.57;;;10.90;84.80;;;;;;5042036;28;20192;-84
2023/03/14 05:58:32;;;;;;;2.43;1.60;;;10.90;86.20;;;;;;5061064;28;20279;-84
2023/03/14 06:01:02;;;;;;;1.60;1.23;;;10.80;86.40;;;;;;5060873;28;20425;-84
2023/03/14 06:03:27;;;;;;;1.37;1.27;;;10.80;86.20;;;;;;5046529;28;20177;-84
2023/03/14 06:05:53;;;;;;;4.37;1.80;;;10.70;86.40;;;;;;5036089;28;20177;-82
2023/03/14 06:08:19;;;;;;;4.03;1.73;;;10.70;86.70;;;;;;5040943;28;20181;-84
2023/03/14 06:10:44;;;;;;;1.30;1.27;;;10.70;87.20;;;;;;5031414;28;20395;-84
2023/03/14 06:13:10;;;;;;;2.10;1.50;;;10.70;87.40;;;;;;5041591;28;20366;-85
2023/03/14 06:15:35;;;;;;;2.53;1.70;;;10.60;87.90;;;;;;5025636;28;20189;-84
2023/03/14 06:18:01;;;;;;;1.80;1.63;;;10.60;87.50;;;;;;5021722;28;20189;-84
2023/03/14 06:20:27;;;;;;;3.90;1.63;;;10.70;86.30;;;;;;5048272;28;20216;-84
2023/03/14 06:22:53;;;;;;;3.40;1.60;;;10.70;86.80;;;;;;5033153;28;20210;-84
2023/03/14 06:25:19;;;;;;;2.47;1.70;;;10.70;87.40;;;;;;5051529;28;20279;-83
2023/03/14 06:27:44;;;;;;;2.17;1.57;;;10.70;86.40;;;;;;5059602;28;20181;-85
2023/03/14 06:30:10;;;;;;;3.57;1.63;;;10.70;86.90;;;;;;5042872;28;20199;-84
2023/03/14 06:32:36;;;;;;;4.40;1.80;;;10.70;86.10;;;;;;5043851;28;20185;-82
2023/03/14 06:35:02;;;;;;;3.97;1.63;;;10.80;85.90;;;;;;5034445;28;20685;-84
2023/03/14 06:37:28;;;;;;;2.83;1.80;;;10.80;85.90;;;;;;5043354;28;20181;-83
2023/03/14 06:39:55;;;;;;;4.90;1.80;;;10.90;85.70;;;;;;5034407;28;21106;-83
2023/03/14 06:42:21;;;;;;;2.63;1.90;;;10.90;85.10;;;;;;5031802;28;20196;-83
2023/03/14 06:44:47;;;;;;;2.07;1.60;;;10.90;84.80;;;;;;5035183;28;20196;-80
2023/03/14 06:47:13;;;;;;;3.63;1.87;;;11.00;83.40;;;;;;5048552;28;20264;-84
2023/03/14 06:49:38;;;;;;;3.93;1.73;;;11.10;85.10;;;;;;5048607;28;20205;-85
2023/03/14 06:52:04;;;;;;;2.20;1.40;;;11.10;84.20;;;;;;5045988;28;20239;-82
2023/03/14 06:54:30;;;;;;;2.53;1.50;;;11.20;83.50;;;;;;5034042;28;20185;-83
2023/03/14 06:56:56;;;;;;;2.60;1.50;;;11.10;83.80;;;;;;5033434;28;20192;-83
2023/03/14 06:59:21;;;;;;;2.57;1.70;;;11.20;84.10;;;;;;5032936;28;20657;-84
2023/03/14 07:01:48;;;;;;;1.70;1.40;;;11.20;84.20;;;;;;5032396;28;20243;-85
2023/03/14 07:04:13;;;;;;;1.80;1.53;;;11.20;83.00;;;;;;5031819;28;20207;-85
2023/03/14 07:06:43;;;;;;;2.37;1.63;;;11.30;83.10;;;;;;5032422;28;20181;-81
2023/03/14 07:09:13;;;;;;;3.20;1.60;;;11.30;82.70;;;;;;5032596;28;20181;-83
2023/03/14 07:11:38;;;;;;;3.07;1.53;;;11.30;81.90;;;;;;5036154;28;20667;-83
2023/03/14 07:14:04;;;;;;;1.47;1.37;;;11.40;80.50;;;;;;5032288;28;20196;-85
2023/03/14 07:16:32;;;;;;;1.47;1.37;;;11.50;81.70;;;;;;5034349;28;20216;-85
2023/03/14 07:18:59;;;;;;;2.60;1.60;;;11.60;81.20;;;;;;5035307;28;20195;-81
2023/03/14 07:21:24;;;;;;;3.30;1.60;;;11.60;81.30;;;;;;5034534;28;20254;-84
2023/03/14 07:23:50;;;;;;;3.23;1.50;;;11.60;79.60;;;;;;5039539;28;20256;-85
2023/03/14 07:26:16;;;;;;;2.57;1.57;;;11.70;79.00;;;;;;5045820;28;20192;-85
2023/03/14 07:28:42;;;;;;;1.47;1.40;;;11.70;79.40;;;;;;5044435;28;20185;-84
2023/03/14 07:31:07;;;;;;;1.53;1.43;;;11.70;79.20;;;;;;5041976;28;20284;-84
2023/03/14 07:33:33;;;;;;;2.43;1.57;;;11.80;79.80;;;;;;5037300;28;20181;-84
2023/03/14 07:35:59;;;;;;;4.63;1.57;;;11.70;80.90;;;;;;5030160;28;20231;-84
2023/03/14 07:38:25;;;;;;;2.67;1.60;;;11.80;78.80;;;;;;5032655;28;20181;-83
2023/03/14 07:40:57;;;;;;;3.63;1.70;;;11.70;79.50;;;;;;5033255;28;20207;-85
2023/03/14 07:43:22;;;;;;;2.23;1.30;;;11.80;80.70;;;;;;5034891;28;20169;-84
2023/03/14 07:45:48;;;;;;;1.57;1.47;;;11.80;79.80;;;;;;5029967;28;20327;-84
2023/03/14 07:48:14;;;;;;;1.60;1.50;;;11.90;78.70;;;;;;5032594;28;20176;-82
2023/03/14 07:50:39;;;;;;;1.93;1.40;;;11.90;77.70;;;;;;5033622;28;20224;-84
2023/03/14 07:53:05;;;;;;;1.73;1.60;;;12.00;77.30;;;;;;5031149;28;20208;-84
2023/03/14 07:55:30;;;;;;;2.17;1.40;;;12.10;77.40;;;;;;5030231;28;20198;-84
2023/03/14 07:57:56;;;;;;;1.40;1.30;;;12.20;76.50;;;;;;5032250;28;20188;-85
2023/03/14 08:00:22;;;;;;;1.83;1.73;;;12.10;77.80;;;;;;5029412;28;20217;-80
2023/03/14 08:02:47;;;;;;;2.77;1.40;;;12.10;76.90;;;;;;5031721;28;20292;-84
2023/03/14 08:05:13;;;;;;;1.20;1.20;;;12.20;76.40;;;;;;5028546;28;20177;-84
2023/03/14 08:07:39;;;;;;;4.33;1.43;;;12.20;76.30;;;;;;5030740;28;20180;-84
2023/03/14 08:10:05;;;;;;;1.30;1.20;;;12.10;77.90;;;;;;5032280;28;20802;-82
2023/03/14 08:12:31;;;;;;;1.80;1.50;;;12.10;77.80;;;;;;5035359;28;20199;-83
2023/03/14 08:14:57;;;;;;;1.50;1.40;;;11.90;80.10;;;;;;5029795;28;20462;-84
2023/03/14 08:17:22;;;;;;;2.73;1.50;;;11.90;79.30;;;;;;5033346;28;20204;-82
2023/03/14 08:19:48;;;;;;;1.73;1.40;;;12.00;83.40;;;;;;5031697;28;20204;-83
2023/03/14 08:22:13;;;;;;;1.83;1.50;;;11.80;83.60;;;;;;5029232;28;20185;-83
2023/03/14 08:24:40;;;;;;;1.40;1.33;;;11.80;83.80;;;;;;5027531;28;20213;-83
2023/03/14 08:27:06;;;;;;;1.50;1.40;;;11.70;88.40;;;;;;5033101;28;20583;-82
2023/03/14 08:29:32;;;;;;;2.77;1.70;;;11.60;89.20;;;;;;5031807;28;20209;-83
2023/03/14 08:31:57;;;;;;;1.43;1.33;;;11.60;90.60;;;;;;5031314;28;20189;-82
2023/03/14 08:34:23;;;;;;;1.67;1.30;;;11.50;90.00;;;;;;5029105;28;20225;-84
2023/03/14 08:36:48;;;;;;;1.47;1.37;;;11.60;86.10;;;;;;5030161;28;20208;-83
2023/03/14 08:39:14;;;;;;;2.10;1.50;;;11.70;86.40;;;;;;5029711;28;20424;-82
2023/03/14 08:41:40;;;;;;;1.33;1.27;;;11.60;87.00;;;;;;5031581;28;20197;-85
2023/03/14 08:44:07;;;;;;;1.80;1.30;;;11.70;84.70;;;;;;5026992;28;20220;-83
2023/03/14 08:46:35;;;;;;;1.40;1.30;;;11.80;83.20;;;;;;5031474;28;20239;-81
2023/03/14 08:49:00;;;;;;;1.33;1.23;;;11.80;83.60;;;;;;5028416;28;20295;-85
2023/03/14 08:51:26;;;;;;;1.40;1.30;;;11.80;81.60;;;;;;5027136;28;20251;-85
2023/03/14 08:53:52;;;;;;;1.50;1.40;;;11.90;83.60;;;;;;5028761;28;20258;-84
2023/03/14 08:56:17;;;;;;;2.07;1.40;;;11.90;85.20;;;;;;5029652;28;20181;-83
2023/03/14 08:58:43;;;;;;;1.77;1.57;;;11.90;85.40;;;;;;5027958;28;20192;-83
2023/03/14 09:01:10;;;;;;;1.53;1.40;;;12.00;82.30;;;;;;5031130;28;20221;-83
2023/03/14 09:03:36;;;;;;;1.80;1.40;;;11.90;81.30;;;;;;5033765;28;20189;-83
2023/03/14 09:06:08;;;;;;;1.50;1.40;;;11.80;82.10;;;;;;5025225;28;20229;-84
2023/03/14 09:08:35;;;;;;;1.97;1.37;;;11.80;82.40;;;;;;5030860;28;20248;-84
2023/03/14 09:11:01;;;;;;;1.20;1.20;;;11.80;82.60;;;;;;5032549;28;20220;-83
2023/03/14 09:13:26;;;;;;;3.80;1.60;;;11.90;81.30;;;;;;5030823;28;20188;-84
2023/03/14 09:15:53;;;;;;;2.67;1.43;;;12.00;82.20;;;;;;5029530;28;20198;-83
2023/03/14 09:18:19;;;;;;;2.90;1.40;;;12.10;84.20;;;;;;5032698;28;20188;-84
2023/03/14 09:20:45;;;;;;;1.73;1.43;;;12.20;81.90;;;;;;5029388;28;20212;-84
2023/03/14 09:23:10;;;;;;;2.10;1.50;;;12.20;81.70;;;;;;5031394;28;20223;-83
2023/03/14 09:25:36;;;;;;;1.47;1.37;;;12.30;79.70;;;;;;5033157;28;20219;-83
2023/03/14 09:28:02;;;;;;;2.37;1.20;;;12.30;80.00;;;;;;5031355;28;20286;-86
2023/03/14 09:30:27;;;;;;;1.60;1.50;;;12.40;80.00;;;;;;5033050;28;20301;-83
2023/03/14 09:32:53;;;;;;;1.40;1.30;;;12.30;79.90;;;;;;5032880;28;20236;-83
2023/03/14 09:35:19;;;;;;;1.13;1.13;;;12.30;79.70;;;;;;5029304;28;20196;-81
2023/03/14 09:37:44;;;;;;;1.40;1.30;;;12.30;81.60;;;;;;5031880;28;20203;-83
2023/03/14 09:40:15;;;;;;;1.00;1.00;;;12.20;81.60;;;;;;5031067;28;20232;-83
2023/03/14 09:42:41;;;;;;;1.33;1.30;;;12.00;82.80;;;;;;5031229;28;20185;-84
2023/03/14 09:45:31;;;;;;;1.20;1.20;;;12.10;82.00;;;;;;5028856;28;20181;-83
2023/03/14 09:47:58;;;;;;;1.30;1.20;;;11.90;84.20;;;;;;5029874;28;20193;-83
2023/03/14 09:50:24;;;;;;;1.40;1.30;;;11.90;84.20;;;;;;5031211;28;20200;-84
2023/03/14 09:52:55;;;;;;;1.20;1.20;;;11.90;87.40;;;;;;5030133;28;20621;-84
2023/03/14 09:55:22;;;;;;;1.30;1.20;;;11.90;88.60;;;;;;5028535;28;20181;-84
2023/03/14 09:57:57;;;;;;;1.40;1.30;;;11.80;91.10;;;;;;5031324;28;20193;-83
2023/03/14 10:00:28;;;;;;;1.70;1.37;;;11.80;90.80;;;;;;5033394;28;20216;-83
2023/03/14 10:02:59;;;;;;;1.30;1.30;;;11.80;90.00;;;;;;5029557;28;20189;-83
2023/03/14 10:05:27;;;;;;;1.87;1.43;;;11.70;94.10;;;;;;5028325;28;21697;-82
2023/03/14 10:07:53;;;;;;;1.40;1.30;;;11.60;93.50;;;;;;5034872;28;20284;-84
2023/03/14 10:10:25;;;;;;;1.10;1.10;;;11.70;96.70;;;;;;5030648;28;20295;-85
2023/03/14 10:12:59;;;;;;;1.10;1.10;;;11.80;96.90;;;;;;5029245;28;20189;-82
2023/03/14 10:15:33;;;;;;;1.47;1.37;;;11.70;96.90;;;;;;5026955;28;20196;-83
2023/03/14 10:18:01;;;;;;;1.20;1.20;;;11.80;97.60;;;;;;5034120;28;20298;-83
2023/03/14 10:20:32;;;;;;;2.00;1.40;;;11.50;99.00;;;;;;5032627;28;20209;-83
2023/03/14 10:23:22;;;;;;;1.30;1.17;;;11.50;99.90;;;;;;5034959;28;20185;-84
2023/03/14 10:26:14;;;;;;;1.20;1.20;;;11.50;99.90;;;;;;5030835;28;20204;-82
2023/03/14 10:28:52;;;;;;;1.20;1.20;;;11.40;99.90;;;;;;5034911;28;20177;-83
2023/03/14 10:31:18;;;;;;;1.13;1.10;;;11.50;99.90;;;;;;5033871;28;20204;-84
2023/03/14 10:34:02;;;;;;;1.00;1.00;;;11.40;99.90;;;;;;5034044;28;20200;-80
2023/03/14 10:36:30;;;;;;;1.50;1.20;;;11.30;99.90;;;;;;5035170;28;20173;-83
2023/03/14 10:39:38;;;;;;;1.30;1.13;;;11.10;99.90;;;;;;5029556;28;20197;-80
2023/03/14 10:42:19;;;;;;;2.97;1.30;;;11.00;99.90;;;;;;5031462;28;20209;-83
2023/03/14 10:44:48;;;;;;;1.43;1.00;;;10.80;99.90;;;;;;5027400;28;20181;-84
2023/03/14 10:47:23;;;;;;;1.20;1.20;;;10.70;99.90;;;;;;5035482;28;20294;-82
2023/03/14 10:49:49;;;;;;;1.50;1.20;;;10.70;99.90;;;;;;5035355;28;20204;-82
2023/03/14 10:52:19;;;;;;;2.83;1.20;;;10.60;99.90;;;;;;5029055;28;20181;-83
2023/03/14 10:55:14;;;;;;;1.30;1.20;;;10.60;99.90;;;;;;5032553;28;20203;-81
2023/03/14 10:57:41;;;;;;;1.33;1.23;;;10.70;99.90;;;;;;5032587;28;20247;-82
2023/03/14 11:00:15;;;;;;;1.20;1.20;;;10.60;99.90;;;;;;5041188;28;20229;-83
2023/03/14 11:02:48;;;;;;;1.47;1.20;;;10.50;99.90;;;;;;5035378;28;20189;-82
2023/03/14 11:05:13;;;;;;;1.10;1.10;;;10.60;99.90;;;;;;5032307;28;20177;-83
2023/03/14 11:07:43;;;;;;;1.00;1.00;;;10.50;99.90;;;;;;5033096;28;20292;-83
2023/03/14 11:10:43;;;;;;;1.00;1.00;;;10.40;99.90;;;;;;5035952;28;20197;-83
2023/03/14 11:13:30;;;;;;;1.47;1.10;;;10.30;99.90;;;;;;5030651;28;20196;-81
2023/03/14 11:16:14;;;;;;;2.30;1.20;;;10.20;99.90;;;;;;5033080;28;20197;-84
2023/03/14 11:18:55;;;;;;;1.20;1.20;;;10.20;99.90;;;;;;5038756;28;20192;-83
2023/03/14 11:21:36;;;;;;;1.50;1.23;;;10.30;99.90;;;;;;5039020;28;20235;-84
2023/03/14 11:24:43;;;;;;;1.47;1.37;;;10.30;99.90;;;;;;5048815;28;20204;-84
2023/03/14 11:27:28;;;;;;;1.20;1.20;;;10.50;99.90;;;;;;5050398;28;20177;-86
2023/03/14 11:29:54;;;;;;;1.20;1.20;;;10.60;99.90;;;;;;5045450;28;20219;-82
2023/03/14 11:33:00;;;;;;;1.63;1.40;;;10.60;99.90;;;;;;5038060;28;20169;-84
2023/03/14 11:35:40;;;;;;;2.30;1.50;;;10.30;91.40;;;;;;5032070;28;20197;-84
2023/03/14 11:38:34;;;;;;;1.73;1.60;;;10.30;96.50;;;;;;5037904;28;20155;-84
2023/03/14 11:41:01;;;;;;;1.40;1.30;;;10.20;92.00;;;;;;5037951;28;20211;-84
2023/03/14 11:43:42;;;;;;;1.90;1.80;;;10.10;91.90;;;;;;5039482;28;20653;-84
2023/03/14 11:46:10;;;;;;;1.43;1.33;;;10.10;94.00;;;;;;5039939;28;20381;-85
2023/03/14 11:49:06;;;;;;;1.63;1.53;;;9.90;91.50;;;;;;5039914;28;20185;-85
2023/03/14 11:51:55;;;;;;;3.20;1.60;;;9.70;87.90;;;;;;5039110;28;20176;-84
2023/03/14 11:54:26;;;;;;;2.03;1.50;;;9.60;87.20;;;;;;5037287;28;20184;-84
2023/03/14 11:57:10;;;;;;;1.60;1.50;;;9.50;85.60;;;;;;5036553;28;20200;-85
2023/03/14 12:00:19;;;;;;;1.63;1.53;;;9.50;88.60;;;;;;5033462;28;21030;-83
2023/03/14 12:02:47;;;;;;;2.43;1.50;;;9.50;86.50;;;;;;5035791;28;20205;-84
2023/03/14 12:05:22;;;;;;;1.43;1.33;;;9.50;85.40;;;;;;5034332;28;20220;-83
2023/03/14 12:08:10;;;;;;;1.73;1.63;;;9.60;85.90;;;;;;5036897;28;20180;-83
2023/03/14 12:10:52;;;;;;;2.33;1.50;;;9.60;83.70;;;;;;5037830;28;20216;-83
2023/03/14 12:13:18;;;;;;;2.03;1.40;;;9.60;82.80;;;;;;5037651;28;20643;-83
2023/03/14 12:16:03;;;;;;;1.73;1.50;;;9.70;80.20;;;;;;5035846;28;20188;-83
2023/03/14 12:18:39;;;;;;;1.87;1.53;;;9.70;83.30;;;;;;5036295;28;20165;-85
2023/03/14 12:21:07;;;;;;;1.43;1.40;;;9.70;76.80;;;;;;5036410;28;20258;-83
2023/03/14 12:23:53;;;;;;;2.20;1.50;;;9.80;78.00;;;;;;5038172;28;20180;-85
2023/03/14 12:26:23;;;;;;;2.27;2.07;;;9.90;76.40;;;;;;5035403;28;20173;-86
2023/03/14 12:28:56;;;;;;;2.63;1.67;;;10.10;74.70;;;;;;5035764;28;20180;-84
2023/03/14 12:31:33;;;;;;;2.80;1.80;;;10.30;71.40;;;;;;5034729;28;20216;-82
2023/03/14 12:34:11;;;;;;;1.67;1.50;;;10.50;70.50;;;;;;5034270;28;20391;-85
2023/03/14 12:36:53;;;;;;;2.17;1.53;;;10.70;63.10;;;;;;5037022;28;20196;-81
2023/03/14 12:39:43;;;;;;;1.70;1.40;;;10.80;62.30;;;;;;5033754;28;20236;-85
2023/03/14 12:42:28;;;;;;;2.90;1.60;;;10.90;61.70;;;;;;5036761;28;20208;-82
2023/03/14 12:45:33;;;;;;;1.30;1.27;;;10.80;60.00;;;;;;5037151;28;20265;-85
2023/03/14 12:48:09;;;;;;;2.77;1.40;;;10.60;59.30;;;;;;5043122;28;20176;-85
2023/03/14 12:51:03;;;;;;;1.50;1.40;;;10.50;60.70;;;;;;5033599;28;20204;-83
2023/03/14 12:53:28;;;;;;;10.50;1.57;;;10.50;58.40;;;;;;5039893;28;20195;-84
2023/03/14 12:56:06;;;;;;;1.43;1.33;;;10.40;55.30;;;;;;5032637;28;20192;-83
2023/03/14 12:58:37;;;;;;;1.97;1.40;;;10.40;55.70;;;;;;5035279;28;20173;-84